sensor_id;sensor_type;location;lat;lon;timestamp;temperature;humidity
17172;DHT22;8701;50.150;8.756;2023-12-20T00:01:31;5.60;99.90
17172;DHT22;8701;50.150;8.756;2023-12-20T00:05:34;5.60;99.90
17172;DHT22;8701;50.150;8.756;2023-12-20T00:09:39;5.60;99.90
17172;DHT22;8701;50.150;8.756;2023-12-20T00:13:41;5.60;99.90
17172;DHT22;8701;50.150;8.756;2023-12-20T00:17:43;5.60;99.90
17172;DHT22;8701;50.150;8.756;2023-12-20T00:21:47;5.60;99.90
17172;DHT22;8701;50.150;8.756;2023-12-20T00:25:49;5.60;99.90
17172;DHT22;8701;50.150;8.756;2023-12-20T00:29:51;5.60;99.90
17172;DHT22;8701;50.150;8.756;2023-12-20T00:33:53;5.60;99.90
17172;DHT22;8701;50.150;8.756;2023-12-20T00:37:58;5.60;99.90
17172;DHT22;8701;50.150;8.756;2023-12-20T00:42:00;5.50;99.90
17172;DHT22;8701;50.150;8.756;2023-12-20T00:46:03;5.50;99.90
17172;DHT22;8701;50.150;8.756;2023-12-20T00:50:06;5.60;99.90
17172;DHT22;8701;50.150;8.756;2023-12-20T00:54:10;5.60;99.90
17172;DHT22;8701;50.150;8.756;2023-12-20T00:58:12;5.50;99.90
17172;DHT22;8701;50.150;8.756;2023-12-20T01:02:16;5.60;99.90
17172;DHT22;8701;50.150;8.756;2023-12-20T01:06:18;5.60;99.90
17172;DHT22;8701;50.150;8.756;2023-12-20T01:10:22;5.60;99.90
17172;DHT22;8701;50.150;8.756;2023-12-20T01:14:24;5.60;99.90
17172;DHT22;8701;50.150;8.756;2023-12-20T01:18:27;5.60;99.90
17172;DHT22;8701;50.150;8.756;2023-12-20T01:22:29;5.60;99.90
17172;DHT22;8701;50.150;8.756;2023-12-20T01:26:33;5.50;99.90
17172;DHT22;8701;50.150;8.756;2023-12-20T01:30:35;5.60;99.90
17172;DHT22;8701;50.150;8.756;2023-12-20T01:34:37;5.60;99.90
17172;DHT22;8701;50.150;8.756;2023-12-20T01:38:39;5.60;99.90
17172;DHT22;8701;50.150;8.756;2023-12-20T01:42:43;5.60;99.90
17172;DHT22;8701;50.150;8.756;2023-12-20T01:46:45;5.60;99.90
17172;DHT22;8701;50.150;8.756;2023-12-20T01:50:48;5.60;99.90
17172;DHT22;8701;50.150;8.756;2023-12-20T01:54:51;5.60;99.90
17172;DHT22;8701;50.150;8.756;2023-12-20T01:58:57;5.60;99.90
17172;DHT22;8701;50.150;8.756;2023-12-20T02:03:01;5.60;99.90
17172;DHT22;8701;50.150;8.756;2023-12-20T02:07:04;5.60;99.90
17172;DHT22;8701;50.150;8.756;2023-12-20T02:11:06;5.70;99.90
17172;DHT22;8701;50.150;8.756;2023-12-20T02:15:11;5.60;99.90
17172;DHT22;8701;50.150;8.756;2023-12-20T02:19:14;5.60;99.90
17172;DHT22;8701;50.150;8.756;2023-12-20T02:23:18;5.60;99.90
17172;DHT22;8701;50.150;8.756;2023-12-20T02:27:20;5.70;99.90
17172;DHT22;8701;50.150;8.756;2023-12-20T02:31:23;5.70;99.90
17172;DHT22;8701;50.150;8.756;2023-12-20T02:35:26;5.70;99.90
17172;DHT22;8701;50.150;8.756;2023-12-20T02:39:30;5.60;99.90
17172;DHT22;8701;50.150;8.756;2023-12-20T02:43:32;5.60;99.90
17172;DHT22;8701;50.150;8.756;2023-12-20T02:47:34;5.60;99.90
17172;DHT22;8701;50.150;8.756;2023-12-20T02:51:36;5.70;99.90
17172;DHT22;8701;50.150;8.756;2023-12-20T02:55:41;5.70;99.90
17172;DHT22;8701;50.150;8.756;2023-12-20T02:59:43;5.70;99.90
17172;DHT22;8701;50.150;8.756;2023-12-20T03:03:45;5.70;99.90
17172;DHT22;8701;50.150;8.756;2023-12-20T03:07:47;5.70;99.90
17172;DHT22;8701;50.150;8.756;2023-12-20T03:11:51;5.70;99.90
17172;DHT22;8701;50.150;8.756;2023-12-20T03:15:53;5.60;99.90
17172;DHT22;8701;50.150;8.756;2023-12-20T03:19:55;5.70;99.90
17172;DHT22;8701;50.150;8.756;2023-12-20T03:23:58;5.60;99.90
17172;DHT22;8701;50.150;8.756;2023-12-20T03:28:01;5.70;99.90
17172;DHT22;8701;50.150;8.756;2023-12-20T03:32:04;5.60;99.90
17172;DHT22;8701;50.150;8.756;2023-12-20T03:36:06;5.70;99.90
17172;DHT22;8701;50.150;8.756;2023-12-20T03:40:09;5.60;99.90
17172;DHT22;8701;50.150;8.756;2023-12-20T03:44:13;5.70;99.90
17172;DHT22;8701;50.150;8.756;2023-12-20T03:48:15;5.70;99.90
17172;DHT22;8701;50.150;8.756;2023-12-20T03:52:17;5.70;99.90
17172;DHT22;8701;50.150;8.756;2023-12-20T03:56:19;5.70;99.90
17172;DHT22;8701;50.150;8.756;2023-12-20T04:00:23;5.80;99.90
17172;DHT22;8701;50.150;8.756;2023-12-20T04:04:25;5.90;99.90
17172;DHT22;8701;50.150;8.756;2023-12-20T04:08:27;5.90;99.90
17172;DHT22;8701;50.150;8.756;2023-12-20T04:12:29;5.90;99.90
17172;DHT22;8701;50.150;8.756;2023-12-20T04:16:33;5.90;99.90
17172;DHT22;8701;50.150;8.756;2023-12-20T04:20:35;5.90;99.90
17172;DHT22;8701;50.150;8.756;2023-12-20T04:24:37;5.90;99.90
17172;DHT22;8701;50.150;8.756;2023-12-20T04:28:39;5.90;99.90
17172;DHT22;8701;50.150;8.756;2023-12-20T04:32:43;5.80;99.90
17172;DHT22;8701;50.150;8.756;2023-12-20T04:36:45;5.80;99.90
17172;DHT22;8701;50.150;8.756;2023-12-20T04:40:47;5.80;99.90
17172;DHT22;8701;50.150;8.756;2023-12-20T04:44:50;5.80;99.90
17172;DHT22;8701;50.150;8.756;2023-12-20T04:48:54;5.70;99.90
17172;DHT22;8701;50.150;8.756;2023-12-20T04:52:56;5.70;99.90
17172;DHT22;8701;50.150;8.756;2023-12-20T04:56:59;5.60;99.90
17172;DHT22;8701;50.150;8.756;2023-12-20T05:01:01;5.50;99.90
17172;DHT22;8701;50.150;8.756;2023-12-20T05:05:05;5.50;99.90
17172;DHT22;8701;50.150;8.756;2023-12-20T05:09:07;5.50;99.90
17172;DHT22;8701;50.150;8.756;2023-12-20T05:13:10;5.50;99.90
17172;DHT22;8701;50.150;8.756;2023-12-20T05:17:12;5.50;99.90
17172;DHT22;8701;50.150;8.756;2023-12-20T05:21:15;5.50;99.90
17172;DHT22;8701;50.150;8.756;2023-12-20T05:25:17;5.50;99.90
17172;DHT22;8701;50.150;8.756;2023-12-20T05:29:20;5.50;99.90
17172;DHT22;8701;50.150;8.756;2023-12-20T05:33:22;5.40;99.90
17172;DHT22;8701;50.150;8.756;2023-12-20T05:37:26;5.30;99.90
17172;DHT22;8701;50.150;8.756;2023-12-20T05:41:28;5.30;99.90
17172;DHT22;8701;50.150;8.756;2023-12-20T05:45:30;5.20;99.90
17172;DHT22;8701;50.150;8.756;2023-12-20T05:49:33;5.30;99.90
17172;DHT22;8701;50.150;8.756;2023-12-20T05:53:36;5.30;99.90
17172;DHT22;8701;50.150;8.756;2023-12-20T05:57:39;5.20;99.90
17172;DHT22;8701;50.150;8.756;2023-12-20T06:01:41;5.20;99.90
17172;DHT22;8701;50.150;8.756;2023-12-20T06:05:43;5.10;99.90
17172;DHT22;8701;50.150;8.756;2023-12-20T06:09:46;5.00;99.90
17172;DHT22;8701;50.150;8.756;2023-12-20T06:13:49;4.90;99.90
17172;DHT22;8701;50.150;8.756;2023-12-20T06:17:53;4.80;99.90
17172;DHT22;8701;50.150;8.756;2023-12-20T06:21:55;4.80;99.90
17172;DHT22;8701;50.150;8.756;2023-12-20T06:25:58;4.80;99.90
17172;DHT22;8701;50.150;8.756;2023-12-20T06:30:01;4.70;99.90
17172;DHT22;8701;50.150;8.756;2023-12-20T06:34:03;4.70;99.90
17172;DHT22;8701;50.150;8.756;2023-12-20T06:38:05;4.70;99.90
17172;DHT22;8701;50.150;8.756;2023-12-20T06:42:09;4.80;99.90
17172;DHT22;8701;50.150;8.756;2023-12-20T06:46:11;4.70;99.90
17172;DHT22;8701;50.150;8.756;2023-12-20T06:50:14;4.60;99.90
17172;DHT22;8701;50.150;8.756;2023-12-20T06:54:16;4.60;99.90
17172;DHT22;8701;50.150;8.756;2023-12-20T06:58:19;4.60;99.90
17172;DHT22;8701;50.150;8.756;2023-12-20T07:02:22;4.60;99.90
17172;DHT22;8701;50.150;8.756;2023-12-20T07:06:24;4.60;99.90
17172;DHT22;8701;50.150;8.756;2023-12-20T07:10:26;4.70;99.90
17172;DHT22;8701;50.150;8.756;2023-12-20T07:14:30;4.90;99.90
17172;DHT22;8701;50.150;8.756;2023-12-20T07:18:32;5.00;99.90
17172;DHT22;8701;50.150;8.756;2023-12-20T07:22:34;5.10;99.90
17172;DHT22;8701;50.150;8.756;2023-12-20T07:26:36;5.10;99.90
17172;DHT22;8701;50.150;8.756;2023-12-20T07:30:41;5.20;99.90
17172;DHT22;8701;50.150;8.756;2023-12-20T07:34:44;5.20;99.90
17172;DHT22;8701;50.150;8.756;2023-12-20T07:38:46;5.20;99.90
17172;DHT22;8701;50.150;8.756;2023-12-20T07:42:49;5.20;99.90
17172;DHT22;8701;50.150;8.756;2023-12-20T07:46:52;5.20;99.90
17172;DHT22;8701;50.150;8.756;2023-12-20T07:50:54;5.10;99.90
17172;DHT22;8701;50.150;8.756;2023-12-20T07:54:56;5.10;99.90
17172;DHT22;8701;50.150;8.756;2023-12-20T07:58:59;5.00;99.90
17172;DHT22;8701;50.150;8.756;2023-12-20T08:03:02;5.00;99.90
17172;DHT22;8701;50.150;8.756;2023-12-20T08:07:04;5.00;99.90
17172;DHT22;8701;50.150;8.756;2023-12-20T08:11:07;5.20;99.90
17172;DHT22;8701;50.150;8.756;2023-12-20T08:15:09;5.30;99.90
17172;DHT22;8701;50.150;8.756;2023-12-20T08:19:17;5.40;99.90
17172;DHT22;8701;50.150;8.756;2023-12-20T08:23:19;5.40;99.90
17172;DHT22;8701;50.150;8.756;2023-12-20T08:27:22;5.50;99.90
17172;DHT22;8701;50.150;8.756;2023-12-20T08:31:24;5.50;99.90
17172;DHT22;8701;50.150;8.756;2023-12-20T08:35:28;5.50;99.90
17172;DHT22;8701;50.150;8.756;2023-12-20T08:39:30;5.50;99.90
17172;DHT22;8701;50.150;8.756;2023-12-20T08:43:35;5.50;99.90
17172;DHT22;8701;50.150;8.756;2023-12-20T08:47:37;5.50;99.90
17172;DHT22;8701;50.150;8.756;2023-12-20T08:51:40;5.60;99.90
17172;DHT22;8701;50.150;8.756;2023-12-20T08:55:43;5.60;99.90
17172;DHT22;8701;50.150;8.756;2023-12-20T08:59:45;5.60;99.90
17172;DHT22;8701;50.150;8.756;2023-12-20T09:03:47;5.70;99.90
17172;DHT22;8701;50.150;8.756;2023-12-20T09:07:51;5.90;99.90
17172;DHT22;8701;50.150;8.756;2023-12-20T09:11:53;6.10;99.90
17172;DHT22;8701;50.150;8.756;2023-12-20T09:15:55;6.30;99.90
17172;DHT22;8701;50.150;8.756;2023-12-20T09:19:57;6.40;99.90
17172;DHT22;8701;50.150;8.756;2023-12-20T09:24:02;6.40;99.90
17172;DHT22;8701;50.150;8.756;2023-12-20T09:28:05;6.40;99.90
17172;DHT22;8701;50.150;8.756;2023-12-20T09:32:07;6.40;99.90
17172;DHT22;8701;50.150;8.756;2023-12-20T09:36:09;6.40;99.90
17172;DHT22;8701;50.150;8.756;2023-12-20T09:40:13;6.40;99.90
17172;DHT22;8701;50.150;8.756;2023-12-20T09:44:16;6.50;99.90
17172;DHT22;8701;50.150;8.756;2023-12-20T09:48:19;6.50;99.90
17172;DHT22;8701;50.150;8.756;2023-12-20T09:52:23;6.60;99.90
17172;DHT22;8701;50.150;8.756;2023-12-20T09:56:27;6.70;99.90
17172;DHT22;8701;50.150;8.756;2023-12-20T10:00:30;6.80;99.90
17172;DHT22;8701;50.150;8.756;2023-12-20T10:04:32;7.00;99.90
17172;DHT22;8701;50.150;8.756;2023-12-20T10:08:34;7.00;99.90
17172;DHT22;8701;50.150;8.756;2023-12-20T10:12:38;6.90;99.90
17172;DHT22;8701;50.150;8.756;2023-12-20T10:16:41;6.90;99.90
17172;DHT22;8701;50.150;8.756;2023-12-20T10:20:43;7.10;99.90
17172;DHT22;8701;50.150;8.756;2023-12-20T10:24:46;7.20;99.90
17172;DHT22;8701;50.150;8.756;2023-12-20T10:28:52;7.20;99.90
17172;DHT22;8701;50.150;8.756;2023-12-20T10:32:55;7.30;99.90
17172;DHT22;8701;50.150;8.756;2023-12-20T10:36:59;7.60;99.90
17172;DHT22;8701;50.150;8.756;2023-12-20T10:41:03;7.70;99.90
17172;DHT22;8701;50.150;8.756;2023-12-20T10:45:09;8.00;99.90
17172;DHT22;8701;50.150;8.756;2023-12-20T10:49:12;8.20;99.90
17172;DHT22;8701;50.150;8.756;2023-12-20T10:53:16;8.30;99.90
17172;DHT22;8701;50.150;8.756;2023-12-20T10:57:18;8.40;99.90
17172;DHT22;8701;50.150;8.756;2023-12-20T11:01:23;8.60;99.90
17172;DHT22;8701;50.150;8.756;2023-12-20T11:05:31;8.70;99.90
17172;DHT22;8701;50.150;8.756;2023-12-20T11:09:36;8.70;99.90
17172;DHT22;8701;50.150;8.756;2023-12-20T11:13:47;8.70;99.90
17172;DHT22;8701;50.150;8.756;2023-12-20T11:17:56;9.00;99.90
17172;DHT22;8701;50.150;8.756;2023-12-20T11:21:58;9.00;99.90
17172;DHT22;8701;50.150;8.756;2023-12-20T11:26:01;9.20;99.90
17172;DHT22;8701;50.150;8.756;2023-12-20T11:30:05;9.50;99.90
17172;DHT22;8701;50.150;8.756;2023-12-20T11:34:14;9.50;99.90
17172;DHT22;8701;50.150;8.756;2023-12-20T11:38:16;10.20;99.90
17172;DHT22;8701;50.150;8.756;2023-12-20T11:42:20;10.20;99.90
17172;DHT22;8701;50.150;8.756;2023-12-20T11:46:22;9.90;99.90
17172;DHT22;8701;50.150;8.756;2023-12-20T11:50:26;10.00;99.90
17172;DHT22;8701;50.150;8.756;2023-12-20T11:54:30;10.30;99.90
17172;DHT22;8701;50.150;8.756;2023-12-20T11:58:33;10.00;99.90
17172;DHT22;8701;50.150;8.756;2023-12-20T12:02:35;9.50;99.90
17172;DHT22;8701;50.150;8.756;2023-12-20T12:06:38;9.40;99.90
17172;DHT22;8701;50.150;8.756;2023-12-20T12:10:41;9.10;99.90
17172;DHT22;8701;50.150;8.756;2023-12-20T12:14:44;9.00;99.90
17172;DHT22;8701;50.150;8.756;2023-12-20T12:18:54;8.90;99.90
17172;DHT22;8701;50.150;8.756;2023-12-20T12:23:02;8.90;99.90
17172;DHT22;8701;50.150;8.756;2023-12-20T12:27:06;9.00;99.90
17172;DHT22;8701;50.150;8.756;2023-12-20T12:31:12;9.10;99.90
17172;DHT22;8701;50.150;8.756;2023-12-20T12:35:15;9.30;99.90
17172;DHT22;8701;50.150;8.756;2023-12-20T12:39:19;9.40;99.90
17172;DHT22;8701;50.150;8.756;2023-12-20T12:43:21;9.10;99.90
17172;DHT22;8701;50.150;8.756;2023-12-20T12:47:25;9.40;99.90
17172;DHT22;8701;50.150;8.756;2023-12-20T12:51:27;9.20;99.90
17172;DHT22;8701;50.150;8.756;2023-12-20T12:55:31;9.10;99.90
17172;DHT22;8701;50.150;8.756;2023-12-20T12:59:33;9.00;99.90
17172;DHT22;8701;50.150;8.756;2023-12-20T13:03:35;9.00;99.90
17172;DHT22;8701;50.150;8.756;2023-12-20T13:07:38;9.40;99.90
17172;DHT22;8701;50.150;8.756;2023-12-20T13:11:42;9.50;99.90
17172;DHT22;8701;50.150;8.756;2023-12-20T13:15:44;9.40;99.90
17172;DHT22;8701;50.150;8.756;2023-12-20T13:19:51;9.20;99.90
17172;DHT22;8701;50.150;8.756;2023-12-20T13:23:53;9.30;99.90
17172;DHT22;8701;50.150;8.756;2023-12-20T13:27:57;9.30;99.90
17172;DHT22;8701;50.150;8.756;2023-12-20T13:32:00;9.10;99.90
17172;DHT22;8701;50.150;8.756;2023-12-20T13:36:05;9.00;99.90
17172;DHT22;8701;50.150;8.756;2023-12-20T13:40:08;8.90;99.90
17172;DHT22;8701;50.150;8.756;2023-12-20T13:44:12;8.90;99.90
17172;DHT22;8701;50.150;8.756;2023-12-20T13:48:14;8.80;99.90
17172;DHT22;8701;50.150;8.756;2023-12-20T13:52:18;8.80;99.90
17172;DHT22;8701;50.150;8.756;2023-12-20T13:56:21;8.80;99.90
17172;DHT22;8701;50.150;8.756;2023-12-20T14:00:25;8.70;99.90
17172;DHT22;8701;50.150;8.756;2023-12-20T14:04:27;8.70;99.90
17172;DHT22;8701;50.150;8.756;2023-12-20T14:08:29;8.50;99.90
17172;DHT22;8701;50.150;8.756;2023-12-20T14:12:32;8.50;99.90
17172;DHT22;8701;50.150;8.756;2023-12-20T14:16:39;8.50;99.90
17172;DHT22;8701;50.150;8.756;2023-12-20T14:20:41;8.40;99.90
17172;DHT22;8701;50.150;8.756;2023-12-20T14:24:45;8.40;99.90
17172;DHT22;8701;50.150;8.756;2023-12-20T14:28:47;8.40;99.90
17172;DHT22;8701;50.150;8.756;2023-12-20T14:32:51;8.40;99.90
17172;DHT22;8701;50.150;8.756;2023-12-20T14:36:53;8.40;99.90
17172;DHT22;8701;50.150;8.756;2023-12-20T14:40:55;8.30;99.90
17172;DHT22;8701;50.150;8.756;2023-12-20T14:44:57;8.30;99.90
17172;DHT22;8701;50.150;8.756;2023-12-20T14:49:01;8.30;99.90
17172;DHT22;8701;50.150;8.756;2023-12-20T14:53:04;8.30;99.90
17172;DHT22;8701;50.150;8.756;2023-12-20T14:57:06;8.20;99.90
17172;DHT22;8701;50.150;8.756;2023-12-20T15:01:09;8.20;99.90
17172;DHT22;8701;50.150;8.756;2023-12-20T15:05:12;8.20;99.90
17172;DHT22;8701;50.150;8.756;2023-12-20T15:09:15;8.20;99.90
17172;DHT22;8701;50.150;8.756;2023-12-20T15:13:17;8.10;99.90
17172;DHT22;8701;50.150;8.756;2023-12-20T15:17:20;8.10;99.90
17172;DHT22;8701;50.150;8.756;2023-12-20T15:21:23;8.10;99.90
17172;DHT22;8701;50.150;8.756;2023-12-20T15:25:33;7.90;99.90
17172;DHT22;8701;50.150;8.756;2023-12-20T15:29:35;8.00;99.90
17172;DHT22;8701;50.150;8.756;2023-12-20T15:33:38;8.00;99.90
17172;DHT22;8701;50.150;8.756;2023-12-20T15:37:42;8.00;99.90
17172;DHT22;8701;50.150;8.756;2023-12-20T15:41:44;8.00;99.90
17172;DHT22;8701;50.150;8.756;2023-12-20T15:45:47;8.00;99.90
17172;DHT22;8701;50.150;8.756;2023-12-20T15:49:49;7.90;99.90
17172;DHT22;8701;50.150;8.756;2023-12-20T15:53:53;7.90;99.90
17172;DHT22;8701;50.150;8.756;2023-12-20T15:57:55;7.90;99.90
17172;DHT22;8701;50.150;8.756;2023-12-20T16:01:57;7.90;99.90
17172;DHT22;8701;50.150;8.756;2023-12-20T16:05:59;7.90;99.90
17172;DHT22;8701;50.150;8.756;2023-12-20T16:10:03;7.90;99.90
17172;DHT22;8701;50.150;8.756;2023-12-20T16:14:06;7.90;99.90
17172;DHT22;8701;50.150;8.756;2023-12-20T16:18:10;8.00;99.90
17172;DHT22;8701;50.150;8.756;2023-12-20T16:22:12;7.80;99.90
17172;DHT22;8701;50.150;8.756;2023-12-20T16:26:16;7.90;99.90
17172;DHT22;8701;50.150;8.756;2023-12-20T16:30:18;7.80;99.90
17172;DHT22;8701;50.150;8.756;2023-12-20T16:34:20;7.80;99.90
17172;DHT22;8701;50.150;8.756;2023-12-20T16:38:23;7.80;99.90
17172;DHT22;8701;50.150;8.756;2023-12-20T16:42:26;7.80;99.90
17172;DHT22;8701;50.150;8.756;2023-12-20T16:46:28;7.80;99.90
17172;DHT22;8701;50.150;8.756;2023-12-20T16:50:30;7.80;99.90
17172;DHT22;8701;50.150;8.756;2023-12-20T16:54:33;8.00;99.90
17172;DHT22;8701;50.150;8.756;2023-12-20T16:58:37;7.70;99.90
17172;DHT22;8701;50.150;8.756;2023-12-20T17:02:39;7.60;99.90
17172;DHT22;8701;50.150;8.756;2023-12-20T17:06:41;7.60;99.90
17172;DHT22;8701;50.150;8.756;2023-12-20T17:10:43;7.60;99.90
17172;DHT22;8701;50.150;8.756;2023-12-20T17:14:47;7.50;99.90
17172;DHT22;8701;50.150;8.756;2023-12-20T17:18:50;7.50;99.90
17172;DHT22;8701;50.150;8.756;2023-12-20T17:22:52;7.50;99.90
17172;DHT22;8701;50.150;8.756;2023-12-20T17:26:54;7.50;99.90
17172;DHT22;8701;50.150;8.756;2023-12-20T17:30:58;7.50;99.90
17172;DHT22;8701;50.150;8.756;2023-12-20T17:35:01;7.50;99.90
17172;DHT22;8701;50.150;8.756;2023-12-20T17:39:03;7.50;99.90
17172;DHT22;8701;50.150;8.756;2023-12-20T17:43:08;7.50;99.90
17172;DHT22;8701;50.150;8.756;2023-12-20T17:47:12;7.40;99.90
17172;DHT22;8701;50.150;8.756;2023-12-20T17:51:16;7.40;99.90
17172;DHT22;8701;50.150;8.756;2023-12-20T17:55:18;7.50;99.90
17172;DHT22;8701;50.150;8.756;2023-12-20T17:59:20;7.50;99.90
17172;DHT22;8701;50.150;8.756;2023-12-20T18:03:24;7.50;99.90
17172;DHT22;8701;50.150;8.756;2023-12-20T18:07:26;7.50;99.90
17172;DHT22;8701;50.150;8.756;2023-12-20T18:11:28;7.40;99.90
17172;DHT22;8701;50.150;8.756;2023-12-20T18:15:31;7.40;99.90
17172;DHT22;8701;50.150;8.756;2023-12-20T18:19:34;7.40;99.90
17172;DHT22;8701;50.150;8.756;2023-12-20T18:23:36;7.40;99.90
17172;DHT22;8701;50.150;8.756;2023-12-20T18:27:39;7.40;99.90
17172;DHT22;8701;50.150;8.756;2023-12-20T18:31:41;7.40;99.90
17172;DHT22;8701;50.150;8.756;2023-12-20T18:35:45;7.40;99.90
17172;DHT22;8701;50.150;8.756;2023-12-20T18:39:47;7.40;99.90
17172;DHT22;8701;50.150;8.756;2023-12-20T18:43:51;7.40;99.90
17172;DHT22;8701;50.150;8.756;2023-12-20T18:47:53;7.50;99.90
17172;DHT22;8701;50.150;8.756;2023-12-20T18:51:58;7.50;99.90
17172;DHT22;8701;50.150;8.756;2023-12-20T18:56:00;7.50;99.90
17172;DHT22;8701;50.150;8.756;2023-12-20T19:00:05;7.50;99.90
17172;DHT22;8701;50.150;8.756;2023-12-20T19:04:10;7.50;99.90
17172;DHT22;8701;50.150;8.756;2023-12-20T19:08:14;7.50;99.90
17172;DHT22;8701;50.150;8.756;2023-12-20T19:12:16;7.50;99.90
17172;DHT22;8701;50.150;8.756;2023-12-20T19:16:19;7.50;99.90
17172;DHT22;8701;50.150;8.756;2023-12-20T19:20:21;7.50;99.90
17172;DHT22;8701;50.150;8.756;2023-12-20T19:24:25;7.50;99.90
17172;DHT22;8701;50.150;8.756;2023-12-20T19:28:27;7.50;99.90
17172;DHT22;8701;50.150;8.756;2023-12-20T19:32:29;7.50;99.90
17172;DHT22;8701;50.150;8.756;2023-12-20T19:36:32;7.50;99.90
17172;DHT22;8701;50.150;8.756;2023-12-20T19:40:35;7.50;99.90
17172;DHT22;8701;50.150;8.756;2023-12-20T19:44:38;7.50;99.90
17172;DHT22;8701;50.150;8.756;2023-12-20T19:48:40;7.70;99.90
17172;DHT22;8701;50.150;8.756;2023-12-20T19:52:43;7.50;99.90
17172;DHT22;8701;50.150;8.756;2023-12-20T19:56:47;7.50;99.90
17172;DHT22;8701;50.150;8.756;2023-12-20T20:00:49;7.50;99.90
17172;DHT22;8701;50.150;8.756;2023-12-20T20:04:51;7.40;99.90
17172;DHT22;8701;50.150;8.756;2023-12-20T20:08:53;7.40;99.90
17172;DHT22;8701;50.150;8.756;2023-12-20T20:12:57;7.40;99.90
17172;DHT22;8701;50.150;8.756;2023-12-20T20:17:00;7.40;99.90
17172;DHT22;8701;50.150;8.756;2023-12-20T20:21:03;7.40;99.90
17172;DHT22;8701;50.150;8.756;2023-12-20T20:25:06;7.40;99.90
17172;DHT22;8701;50.150;8.756;2023-12-20T20:29:10;7.30;99.90
17172;DHT22;8701;50.150;8.756;2023-12-20T20:33:12;7.30;99.90
17172;DHT22;8701;50.150;8.756;2023-12-20T20:37:14;7.30;99.90
17172;DHT22;8701;50.150;8.756;2023-12-20T20:41:16;7.20;99.90
17172;DHT22;8701;50.150;8.756;2023-12-20T20:45:20;7.30;99.90
17172;DHT22;8701;50.150;8.756;2023-12-20T20:49:23;7.30;99.90
17172;DHT22;8701;50.150;8.756;2023-12-20T20:53:26;7.20;99.90
17172;DHT22;8701;50.150;8.756;2023-12-20T20:57:28;7.20;99.90
17172;DHT22;8701;50.150;8.756;2023-12-20T21:01:31;7.40;99.90
17172;DHT22;8701;50.150;8.756;2023-12-20T21:05:34;7.30;99.90
17172;DHT22;8701;50.150;8.756;2023-12-20T21:09:36;7.30;99.90
17172;DHT22;8701;50.150;8.756;2023-12-20T21:13:38;7.30;99.90
17172;DHT22;8701;50.150;8.756;2023-12-20T21:17:42;7.30;99.90
17172;DHT22;8701;50.150;8.756;2023-12-20T21:21:45;7.30;99.90
17172;DHT22;8701;50.150;8.756;2023-12-20T21:25:47;7.30;99.90
17172;DHT22;8701;50.150;8.756;2023-12-20T21:29:50;7.30;99.90
17172;DHT22;8701;50.150;8.756;2023-12-20T21:33:54;7.30;99.90
17172;DHT22;8701;50.150;8.756;2023-12-20T21:37:57;7.40;99.90
17172;DHT22;8701;50.150;8.756;2023-12-20T21:41:59;7.40;99.90
17172;DHT22;8701;50.150;8.756;2023-12-20T21:46:01;7.30;99.90
17172;DHT22;8701;50.150;8.756;2023-12-20T21:50:07;7.40;99.90
17172;DHT22;8701;50.150;8.756;2023-12-20T21:54:09;7.40;99.90
17172;DHT22;8701;50.150;8.756;2023-12-20T21:58:12;7.40;99.90
17172;DHT22;8701;50.150;8.756;2023-12-20T22:02:14;7.40;99.90
17172;DHT22;8701;50.150;8.756;2023-12-20T22:06:18;7.40;99.90
17172;DHT22;8701;50.150;8.756;2023-12-20T22:10:20;7.40;99.90
17172;DHT22;8701;50.150;8.756;2023-12-20T22:14:22;7.40;99.90
17172;DHT22;8701;50.150;8.756;2023-12-20T22:18:27;7.40;99.90
17172;DHT22;8701;50.150;8.756;2023-12-20T22:22:30;7.30;99.90
17172;DHT22;8701;50.150;8.756;2023-12-20T22:26:33;7.30;99.90
17172;DHT22;8701;50.150;8.756;2023-12-20T22:30:35;7.20;99.90
17172;DHT22;8701;50.150;8.756;2023-12-20T22:34:37;7.20;99.90
17172;DHT22;8701;50.150;8.756;2023-12-20T22:38:41;7.30;99.90
17172;DHT22;8701;50.150;8.756;2023-12-20T22:42:44;7.30;99.90
17172;DHT22;8701;50.150;8.756;2023-12-20T22:46:46;7.30;99.90
17172;DHT22;8701;50.150;8.756;2023-12-20T22:50:48;7.30;99.90
17172;DHT22;8701;50.150;8.756;2023-12-20T22:54:52;7.30;99.90
17172;DHT22;8701;50.150;8.756;2023-12-20T22:58:54;7.30;99.90
17172;DHT22;8701;50.150;8.756;2023-12-20T23:02:56;7.30;99.90
17172;DHT22;8701;50.150;8.756;2023-12-20T23:06:59;7.30;99.90
17172;DHT22;8701;50.150;8.756;2023-12-20T23:11:02;7.20;99.90
17172;DHT22;8701;50.150;8.756;2023-12-20T23:15:06;7.30;99.90
17172;DHT22;8701;50.150;8.756;2023-12-20T23:19:08;7.20;99.90
17172;DHT22;8701;50.150;8.756;2023-12-20T23:23:11;7.20;99.90
17172;DHT22;8701;50.150;8.756;2023-12-20T23:27:15;7.20;99.90
17172;DHT22;8701;50.150;8.756;2023-12-20T23:31:21;7.20;99.90
17172;DHT22;8701;50.150;8.756;2023-12-20T23:35:25;7.20;99.90
17172;DHT22;8701;50.150;8.756;2023-12-20T23:39:27;7.20;99.90
17172;DHT22;8701;50.150;8.756;2023-12-20T23:43:31;7.20;99.90
17172;DHT22;8701;50.150;8.756;2023-12-20T23:47:33;7.20;99.90
17172;DHT22;8701;50.150;8.756;2023-12-20T23:51:35;7.20;99.90
17172;DHT22;8701;50.150;8.756;2023-12-20T23:55:37;7.20;99.90
17172;DHT22;8701;50.150;8.756;2023-12-20T23:59:41;7.20;99.90
